sensor_id;sensor_type;location;lat;lon;timestamp;P1;durP1;ratioP1;P2;durP2;ratioP2
1010;SDS011;494;48.744;10.106;2023-04-06T00:01:14;25.00;;;12.30;;
1010;SDS011;494;48.744;10.106;2023-04-06T00:03:43;21.60;;;12.25;;
1010;SDS011;494;48.744;10.106;2023-04-06T00:06:13;26.05;;;13.90;;
1010;SDS011;494;48.744;10.106;2023-04-06T00:08:42;26.25;;;14.10;;
1010;SDS011;494;48.744;10.106;2023-04-06T00:11:11;24.23;;;14.45;;
1010;SDS011;494;48.744;10.106;2023-04-06T00:13:40;23.17;;;14.13;;
1010;SDS011;494;48.744;10.106;2023-04-06T00:16:08;25.73;;;14.60;;
1010;SDS011;494;48.744;10.106;2023-04-06T00:18:37;26.30;;;15.63;;
1010;SDS011;494;48.744;10.106;2023-04-06T00:21:05;24.33;;;15.10;;
1010;SDS011;494;48.744;10.106;2023-04-06T00:23:35;27.88;;;15.85;;
1010;SDS011;494;48.744;10.106;2023-04-06T00:26:04;26.05;;;15.43;;
1010;SDS011;494;48.744;10.106;2023-04-06T00:28:32;26.30;;;14.80;;
1010;SDS011;494;48.744;10.106;2023-04-06T00:31:01;28.05;;;15.77;;
1010;SDS011;494;48.744;10.106;2023-04-06T00:33:30;25.00;;;14.88;;
1010;SDS011;494;48.744;10.106;2023-04-06T00:35:59;25.90;;;14.60;;
1010;SDS011;494;48.744;10.106;2023-04-06T00:38:28;27.65;;;15.30;;
1010;SDS011;494;48.744;10.106;2023-04-06T00:40:58;23.67;;;13.35;;
1010;SDS011;494;48.744;10.106;2023-04-06T00:43:27;25.70;;;15.30;;
1010;SDS011;494;48.744;10.106;2023-04-06T00:45:55;24.20;;;13.82;;
1010;SDS011;494;48.744;10.106;2023-04-06T00:48:24;22.20;;;13.27;;
1010;SDS011;494;48.744;10.106;2023-04-06T00:50:53;25.00;;;14.30;;
1010;SDS011;494;48.744;10.106;2023-04-06T00:53:22;23.40;;;14.23;;
1010;SDS011;494;48.744;10.106;2023-04-06T00:55:50;26.40;;;15.82;;
1010;SDS011;494;48.744;10.106;2023-04-06T00:58:20;24.20;;;14.40;;
1010;SDS011;494;48.744;10.106;2023-04-06T01:00:49;28.75;;;14.70;;
1010;SDS011;494;48.744;10.106;2023-04-06T01:03:17;25.88;;;15.57;;
1010;SDS011;494;48.744;10.106;2023-04-06T01:05:46;24.33;;;13.68;;
1010;SDS011;494;48.744;10.106;2023-04-06T01:08:15;24.05;;;14.38;;
1010;SDS011;494;48.744;10.106;2023-04-06T01:10:43;22.13;;;13.77;;
1010;SDS011;494;48.744;10.106;2023-04-06T01:13:12;27.38;;;15.38;;
1010;SDS011;494;48.744;10.106;2023-04-06T01:15:42;25.15;;;14.30;;
1010;SDS011;494;48.744;10.106;2023-04-06T01:18:11;25.67;;;14.30;;
1010;SDS011;494;48.744;10.106;2023-04-06T01:20:39;26.98;;;14.60;;
1010;SDS011;494;48.744;10.106;2023-04-06T01:23:09;22.90;;;14.10;;
1010;SDS011;494;48.744;10.106;2023-04-06T01:25:38;25.67;;;15.13;;
1010;SDS011;494;48.744;10.106;2023-04-06T01:28:07;23.27;;;13.52;;
1010;SDS011;494;48.744;10.106;2023-04-06T01:30:35;23.15;;;13.80;;
1010;SDS011;494;48.744;10.106;2023-04-06T01:33:04;24.70;;;13.55;;
1010;SDS011;494;48.744;10.106;2023-04-06T01:35:33;26.13;;;13.80;;
1010;SDS011;494;48.744;10.106;2023-04-06T01:38:01;24.42;;;14.10;;
1010;SDS011;494;48.744;10.106;2023-04-06T01:40:31;24.75;;;14.25;;
1010;SDS011;494;48.744;10.106;2023-04-06T01:43:00;43.78;;;20.52;;
1010;SDS011;494;48.744;10.106;2023-04-06T01:45:29;60.38;;;27.30;;
1010;SDS011;494;48.744;10.106;2023-04-06T01:47:57;49.90;;;25.35;;
1010;SDS011;494;48.744;10.106;2023-04-06T01:50:26;33.60;;;17.00;;
1010;SDS011;494;48.744;10.106;2023-04-06T01:52:54;25.70;;;15.20;;
1010;SDS011;494;48.744;10.106;2023-04-06T01:55:23;23.30;;;14.65;;
1010;SDS011;494;48.744;10.106;2023-04-06T01:57:53;27.45;;;15.10;;
1010;SDS011;494;48.744;10.106;2023-04-06T02:00:22;27.05;;;15.07;;
1010;SDS011;494;48.744;10.106;2023-04-06T02:02:50;25.35;;;14.43;;
1010;SDS011;494;48.744;10.106;2023-04-06T02:05:19;25.33;;;14.80;;
1010;SDS011;494;48.744;10.106;2023-04-06T02:07:48;29.38;;;14.30;;
1010;SDS011;494;48.744;10.106;2023-04-06T02:10:18;25.55;;;14.85;;
1010;SDS011;494;48.744;10.106;2023-04-06T02:12:46;29.42;;;14.65;;
1010;SDS011;494;48.744;10.106;2023-04-06T02:15:17;25.73;;;14.95;;
1010;SDS011;494;48.744;10.106;2023-04-06T02:17:45;26.35;;;15.00;;
1010;SDS011;494;48.744;10.106;2023-04-06T02:20:14;31.92;;;15.40;;
1010;SDS011;494;48.744;10.106;2023-04-06T02:22:42;30.13;;;16.00;;
1010;SDS011;494;48.744;10.106;2023-04-06T02:25:11;27.42;;;15.75;;
1010;SDS011;494;48.744;10.106;2023-04-06T02:27:40;26.13;;;14.90;;
1010;SDS011;494;48.744;10.106;2023-04-06T02:30:09;24.15;;;13.13;;
1010;SDS011;494;48.744;10.106;2023-04-06T02:32:40;24.15;;;13.30;;
1010;SDS011;494;48.744;10.106;2023-04-06T02:35:08;24.10;;;13.60;;
1010;SDS011;494;48.744;10.106;2023-04-06T02:37:37;20.55;;;12.40;;
1010;SDS011;494;48.744;10.106;2023-04-06T02:40:06;20.75;;;12.25;;
1010;SDS011;494;48.744;10.106;2023-04-06T02:42:36;21.85;;;12.75;;
1010;SDS011;494;48.744;10.106;2023-04-06T02:45:05;24.83;;;13.35;;
1010;SDS011;494;48.744;10.106;2023-04-06T02:47:34;26.77;;;15.25;;
1010;SDS011;494;48.744;10.106;2023-04-06T02:50:05;23.10;;;13.85;;
1010;SDS011;494;48.744;10.106;2023-04-06T02:52:34;25.33;;;14.48;;
1010;SDS011;494;48.744;10.106;2023-04-06T02:55:02;26.88;;;15.23;;
1010;SDS011;494;48.744;10.106;2023-04-06T02:57:33;24.52;;;13.95;;
1010;SDS011;494;48.744;10.106;2023-04-06T03:00:02;28.75;;;14.48;;
1010;SDS011;494;48.744;10.106;2023-04-06T03:02:33;27.40;;;14.88;;
1010;SDS011;494;48.744;10.106;2023-04-06T03:05:01;25.90;;;14.30;;
1010;SDS011;494;48.744;10.106;2023-04-06T03:07:32;29.70;;;15.20;;
1010;SDS011;494;48.744;10.106;2023-04-06T03:10:00;30.55;;;14.77;;
1010;SDS011;494;48.744;10.106;2023-04-06T03:12:29;24.85;;;14.93;;
1010;SDS011;494;48.744;10.106;2023-04-06T03:14:57;25.48;;;14.05;;
1010;SDS011;494;48.744;10.106;2023-04-06T03:17:26;29.23;;;14.35;;
1010;SDS011;494;48.744;10.106;2023-04-06T03:19:54;26.00;;;15.13;;
1010;SDS011;494;48.744;10.106;2023-04-06T03:22:23;26.05;;;13.85;;
1010;SDS011;494;48.744;10.106;2023-04-06T03:24:53;23.50;;;13.65;;
1010;SDS011;494;48.744;10.106;2023-04-06T03:27:22;24.25;;;14.05;;
1010;SDS011;494;48.744;10.106;2023-04-06T03:29:51;24.05;;;13.32;;
1010;SDS011;494;48.744;10.106;2023-04-06T03:32:19;24.27;;;13.63;;
1010;SDS011;494;48.744;10.106;2023-04-06T03:34:48;23.52;;;13.05;;
1010;SDS011;494;48.744;10.106;2023-04-06T03:37:16;26.25;;;14.02;;
1010;SDS011;494;48.744;10.106;2023-04-06T03:39:45;25.50;;;14.30;;
1010;SDS011;494;48.744;10.106;2023-04-06T03:42:15;22.20;;;13.38;;
1010;SDS011;494;48.744;10.106;2023-04-06T03:44:43;32.28;;;16.20;;
1010;SDS011;494;48.744;10.106;2023-04-06T03:47:12;31.35;;;16.25;;
1010;SDS011;494;48.744;10.106;2023-04-06T03:49:41;24.65;;;15.10;;
1010;SDS011;494;48.744;10.106;2023-04-06T03:52:09;26.85;;;15.65;;
1010;SDS011;494;48.744;10.106;2023-04-06T03:54:38;31.92;;;15.23;;
1010;SDS011;494;48.744;10.106;2023-04-06T03:57:06;27.50;;;15.48;;
1010;SDS011;494;48.744;10.106;2023-04-06T03:59:36;26.88;;;15.43;;
1010;SDS011;494;48.744;10.106;2023-04-06T04:02:05;29.77;;;15.30;;
1010;SDS011;494;48.744;10.106;2023-04-06T04:04:34;30.13;;;15.15;;
1010;SDS011;494;48.744;10.106;2023-04-06T04:07:03;26.13;;;13.77;;
1010;SDS011;494;48.744;10.106;2023-04-06T04:09:31;31.35;;;18.30;;
1010;SDS011;494;48.744;10.106;2023-04-06T04:12:00;35.67;;;19.33;;
1010;SDS011;494;48.744;10.106;2023-04-06T04:14:28;33.53;;;17.70;;
1010;SDS011;494;48.744;10.106;2023-04-06T04:16:58;31.40;;;16.10;;
1010;SDS011;494;48.744;10.106;2023-04-06T04:19:27;36.45;;;17.75;;
1010;SDS011;494;48.744;10.106;2023-04-06T04:21:55;30.92;;;16.83;;
1010;SDS011;494;48.744;10.106;2023-04-06T04:24:24;32.47;;;15.90;;
1010;SDS011;494;48.744;10.106;2023-04-06T04:26:52;32.70;;;16.35;;
1010;SDS011;494;48.744;10.106;2023-04-06T04:29:21;38.08;;;16.60;;
1010;SDS011;494;48.744;10.106;2023-04-06T04:31:50;30.60;;;17.10;;
1010;SDS011;494;48.744;10.106;2023-04-06T04:34:20;32.67;;;16.25;;
1010;SDS011;494;48.744;10.106;2023-04-06T04:36:51;29.55;;;15.98;;
1010;SDS011;494;48.744;10.106;2023-04-06T04:39:20;34.08;;;16.00;;
1010;SDS011;494;48.744;10.106;2023-04-06T04:41:48;32.00;;;16.92;;
1010;SDS011;494;48.744;10.106;2023-04-06T04:44:17;35.20;;;16.63;;
1010;SDS011;494;48.744;10.106;2023-04-06T04:46:46;33.30;;;17.30;;
1010;SDS011;494;48.744;10.106;2023-04-06T04:49:14;42.10;;;17.30;;
1010;SDS011;494;48.744;10.106;2023-04-06T04:51:45;35.00;;;17.05;;
1010;SDS011;494;48.744;10.106;2023-04-06T04:54:13;32.70;;;16.40;;
1010;SDS011;494;48.744;10.106;2023-04-06T04:56:42;34.55;;;15.63;;
1010;SDS011;494;48.744;10.106;2023-04-06T04:59:10;34.75;;;16.85;;
1010;SDS011;494;48.744;10.106;2023-04-06T05:01:39;49.08;;;19.52;;
1010;SDS011;494;48.744;10.106;2023-04-06T05:04:20;39.55;;;18.40;;
1010;SDS011;494;48.744;10.106;2023-04-06T05:06:51;31.17;;;16.48;;
1010;SDS011;494;48.744;10.106;2023-04-06T05:09:31;33.40;;;17.30;;
1010;SDS011;494;48.744;10.106;2023-04-06T05:12:00;35.63;;;17.25;;
1010;SDS011;494;48.744;10.106;2023-04-06T05:14:29;32.60;;;16.65;;
1010;SDS011;494;48.744;10.106;2023-04-06T05:16:57;45.58;;;18.88;;
1010;SDS011;494;48.744;10.106;2023-04-06T05:19:26;36.63;;;17.83;;
1010;SDS011;494;48.744;10.106;2023-04-06T05:21:56;47.30;;;17.35;;
1010;SDS011;494;48.744;10.106;2023-04-06T05:24:25;52.80;;;18.40;;
1010;SDS011;494;48.744;10.106;2023-04-06T05:26:54;32.47;;;16.42;;
1010;SDS011;494;48.744;10.106;2023-04-06T05:29:22;41.92;;;18.90;;
1010;SDS011;494;48.744;10.106;2023-04-06T05:31:51;37.90;;;19.40;;
1010;SDS011;494;48.744;10.106;2023-04-06T05:34:19;46.92;;;21.67;;
1010;SDS011;494;48.744;10.106;2023-04-06T05:36:48;43.20;;;20.67;;
1010;SDS011;494;48.744;10.106;2023-04-06T05:39:18;45.10;;;20.15;;
1010;SDS011;494;48.744;10.106;2023-04-06T05:41:47;47.03;;;19.73;;
1010;SDS011;494;48.744;10.106;2023-04-06T05:44:16;47.33;;;20.92;;
1010;SDS011;494;48.744;10.106;2023-04-06T05:46:45;61.50;;;20.20;;
1010;SDS011;494;48.744;10.106;2023-04-06T05:49:14;41.95;;;19.83;;
1010;SDS011;494;48.744;10.106;2023-04-06T05:51:42;64.05;;;20.60;;
1010;SDS011;494;48.744;10.106;2023-04-06T05:54:11;55.63;;;20.20;;
1010;SDS011;494;48.744;10.106;2023-04-06T05:56:40;46.10;;;20.80;;
1010;SDS011;494;48.744;10.106;2023-04-06T05:59:09;49.75;;;19.85;;
1010;SDS011;494;48.744;10.106;2023-04-06T06:01:38;62.33;;;21.75;;
1010;SDS011;494;48.744;10.106;2023-04-06T06:04:07;72.35;;;23.40;;
1010;SDS011;494;48.744;10.106;2023-04-06T06:06:35;51.85;;;22.35;;
1010;SDS011;494;48.744;10.106;2023-04-06T06:09:04;56.97;;;23.15;;
1010;SDS011;494;48.744;10.106;2023-04-06T06:11:33;45.53;;;22.70;;
1010;SDS011;494;48.744;10.106;2023-04-06T06:14:03;45.80;;;23.10;;
1010;SDS011;494;48.744;10.106;2023-04-06T06:16:32;57.83;;;25.60;;
1010;SDS011;494;48.744;10.106;2023-04-06T06:19:00;58.65;;;24.73;;
1010;SDS011;494;48.744;10.106;2023-04-06T06:21:29;58.88;;;25.65;;
1010;SDS011;494;48.744;10.106;2023-04-06T06:23:58;65.55;;;24.42;;
1010;SDS011;494;48.744;10.106;2023-04-06T06:26:26;59.22;;;23.25;;
1010;SDS011;494;48.744;10.106;2023-04-06T06:28:55;55.30;;;20.50;;
1010;SDS011;494;48.744;10.106;2023-04-06T06:31:25;46.17;;;20.58;;
1010;SDS011;494;48.744;10.106;2023-04-06T06:33:54;52.83;;;20.08;;
1010;SDS011;494;48.744;10.106;2023-04-06T06:36:22;47.28;;;19.30;;
1010;SDS011;494;48.744;10.106;2023-04-06T06:38:53;53.17;;;22.00;;
1010;SDS011;494;48.744;10.106;2023-04-06T06:41:21;53.28;;;20.15;;
1010;SDS011;494;48.744;10.106;2023-04-06T06:43:50;51.13;;;19.55;;
1010;SDS011;494;48.744;10.106;2023-04-06T06:46:19;45.20;;;21.08;;
1010;SDS011;494;48.744;10.106;2023-04-06T06:48:50;42.67;;;20.25;;
1010;SDS011;494;48.744;10.106;2023-04-06T06:51:18;41.60;;;19.65;;
1010;SDS011;494;48.744;10.106;2023-04-06T06:53:47;44.67;;;19.75;;
1010;SDS011;494;48.744;10.106;2023-04-06T06:56:16;43.47;;;20.80;;
1010;SDS011;494;48.744;10.106;2023-04-06T06:58:44;47.87;;;20.80;;
1010;SDS011;494;48.744;10.106;2023-04-06T07:01:14;42.40;;;20.10;;
1010;SDS011;494;48.744;10.106;2023-04-06T07:03:42;48.73;;;20.57;;
1010;SDS011;494;48.744;10.106;2023-04-06T07:06:13;60.50;;;20.13;;
1010;SDS011;494;48.744;10.106;2023-04-06T07:08:41;57.57;;;20.40;;
1010;SDS011;494;48.744;10.106;2023-04-06T07:11:10;64.47;;;23.70;;
1010;SDS011;494;48.744;10.106;2023-04-06T07:13:39;43.90;;;20.70;;
1010;SDS011;494;48.744;10.106;2023-04-06T07:16:08;45.53;;;19.53;;
1010;SDS011;494;48.744;10.106;2023-04-06T07:18:37;40.13;;;19.23;;
1010;SDS011;494;48.744;10.106;2023-04-06T07:21:05;44.57;;;19.93;;
1010;SDS011;494;48.744;10.106;2023-04-06T07:23:35;44.77;;;19.13;;
1010;SDS011;494;48.744;10.106;2023-04-06T07:26:04;40.17;;;19.30;;
1010;SDS011;494;48.744;10.106;2023-04-06T07:28:33;42.27;;;20.03;;
1010;SDS011;494;48.744;10.106;2023-04-06T07:31:01;38.70;;;18.87;;
1010;SDS011;494;48.744;10.106;2023-04-06T07:33:30;35.50;;;20.00;;
1010;SDS011;494;48.744;10.106;2023-04-06T07:35:59;35.97;;;20.77;;
1010;SDS011;494;48.744;10.106;2023-04-06T07:38:28;35.20;;;20.60;;
1010;SDS011;494;48.744;10.106;2023-04-06T07:40:58;38.67;;;19.90;;
1010;SDS011;494;48.744;10.106;2023-04-06T07:43:30;36.50;;;20.73;;
1010;SDS011;494;48.744;10.106;2023-04-06T07:45:59;32.60;;;18.83;;
1010;SDS011;494;48.744;10.106;2023-04-06T07:48:29;36.20;;;19.60;;
1010;SDS011;494;48.744;10.106;2023-04-06T07:51:01;33.60;;;19.10;;
1010;SDS011;494;48.744;10.106;2023-04-06T07:53:32;30.23;;;19.90;;
1010;SDS011;494;48.744;10.106;2023-04-06T07:56:03;36.13;;;19.50;;
1010;SDS011;494;48.744;10.106;2023-04-06T07:58:32;34.60;;;19.90;;
1010;SDS011;494;48.744;10.106;2023-04-06T08:01:01;29.40;;;20.20;;
1010;SDS011;494;48.744;10.106;2023-04-06T08:03:30;31.80;;;20.97;;
1010;SDS011;494;48.744;10.106;2023-04-06T08:06:01;35.50;;;20.90;;
1010;SDS011;494;48.744;10.106;2023-04-06T08:08:31;34.13;;;21.00;;
1010;SDS011;494;48.744;10.106;2023-04-06T08:11:00;36.87;;;20.70;;
1010;SDS011;494;48.744;10.106;2023-04-06T08:13:30;37.37;;;22.10;;
1010;SDS011;494;48.744;10.106;2023-04-06T08:15:59;32.40;;;21.60;;
1010;SDS011;494;48.744;10.106;2023-04-06T08:18:29;32.23;;;21.20;;
1010;SDS011;494;48.744;10.106;2023-04-06T08:20:58;31.60;;;20.30;;
1010;SDS011;494;48.744;10.106;2023-04-06T08:23:27;33.77;;;21.30;;
1010;SDS011;494;48.744;10.106;2023-04-06T08:25:57;32.37;;;21.13;;
1010;SDS011;494;48.744;10.106;2023-04-06T08:28:29;35.17;;;21.47;;
1010;SDS011;494;48.744;10.106;2023-04-06T08:30:59;31.10;;;20.80;;
1010;SDS011;494;48.744;10.106;2023-04-06T08:33:34;27.70;;;18.77;;
1010;SDS011;494;48.744;10.106;2023-04-06T08:36:09;31.13;;;19.47;;
1010;SDS011;494;48.744;10.106;2023-04-06T08:38:39;29.17;;;18.57;;
1010;SDS011;494;48.744;10.106;2023-04-06T08:41:18;34.70;;;21.07;;
1010;SDS011;494;48.744;10.106;2023-04-06T08:43:51;32.83;;;21.63;;
1010;SDS011;494;48.744;10.106;2023-04-06T08:46:26;31.60;;;21.17;;
1010;SDS011;494;48.744;10.106;2023-04-06T08:48:57;31.20;;;20.03;;
1010;SDS011;494;48.744;10.106;2023-04-06T08:51:28;29.13;;;18.20;;
1010;SDS011;494;48.744;10.106;2023-04-06T08:53:58;29.17;;;18.23;;
1010;SDS011;494;48.744;10.106;2023-04-06T08:56:27;27.30;;;16.10;;
1010;SDS011;494;48.744;10.106;2023-04-06T08:58:58;26.00;;;15.37;;
1010;SDS011;494;48.744;10.106;2023-04-06T09:01:28;24.20;;;14.33;;
1010;SDS011;494;48.744;10.106;2023-04-06T09:03:59;25.80;;;14.10;;
1010;SDS011;494;48.744;10.106;2023-04-06T09:06:30;23.27;;;14.40;;
1010;SDS011;494;48.744;10.106;2023-04-06T09:08:59;23.70;;;14.27;;
1010;SDS011;494;48.744;10.106;2023-04-06T09:11:27;25.83;;;15.07;;
1010;SDS011;494;48.744;10.106;2023-04-06T09:13:58;24.40;;;15.60;;
1010;SDS011;494;48.744;10.106;2023-04-06T09:16:26;22.23;;;13.83;;
1010;SDS011;494;48.744;10.106;2023-04-06T09:19:03;26.07;;;15.50;;
1010;SDS011;494;48.744;10.106;2023-04-06T09:21:32;23.83;;;15.77;;
1010;SDS011;494;48.744;10.106;2023-04-06T09:24:01;22.93;;;14.50;;
1010;SDS011;494;48.744;10.106;2023-04-06T09:26:31;22.80;;;14.00;;
1010;SDS011;494;48.744;10.106;2023-04-06T09:29:03;22.77;;;14.50;;
1010;SDS011;494;48.744;10.106;2023-04-06T09:31:33;24.83;;;15.30;;
1010;SDS011;494;48.744;10.106;2023-04-06T09:34:01;21.50;;;14.80;;
1010;SDS011;494;48.744;10.106;2023-04-06T09:36:30;21.30;;;13.90;;
1010;SDS011;494;48.744;10.106;2023-04-06T09:39:00;26.90;;;16.47;;
1010;SDS011;494;48.744;10.106;2023-04-06T09:41:31;25.70;;;15.43;;
1010;SDS011;494;48.744;10.106;2023-04-06T09:44:03;22.97;;;14.17;;
1010;SDS011;494;48.744;10.106;2023-04-06T09:46:35;23.87;;;13.83;;
1010;SDS011;494;48.744;10.106;2023-04-06T09:49:23;25.27;;;14.43;;
1010;SDS011;494;48.744;10.106;2023-04-06T09:51:56;24.50;;;14.57;;
1010;SDS011;494;48.744;10.106;2023-04-06T09:54:28;27.87;;;15.33;;
1010;SDS011;494;48.744;10.106;2023-04-06T09:57:01;22.73;;;14.40;;
1010;SDS011;494;48.744;10.106;2023-04-06T09:59:44;23.50;;;14.80;;
1010;SDS011;494;48.744;10.106;2023-04-06T10:02:24;23.17;;;13.80;;
1010;SDS011;494;48.744;10.106;2023-04-06T10:05:05;22.47;;;14.03;;
1010;SDS011;494;48.744;10.106;2023-04-06T10:07:40;22.33;;;14.37;;
1010;SDS011;494;48.744;10.106;2023-04-06T10:10:25;23.27;;;15.57;;
1010;SDS011;494;48.744;10.106;2023-04-06T10:12:55;23.60;;;15.40;;
1010;SDS011;494;48.744;10.106;2023-04-06T10:15:28;20.57;;;13.37;;
1010;SDS011;494;48.744;10.106;2023-04-06T10:17:58;21.80;;;14.00;;
1010;SDS011;494;48.744;10.106;2023-04-06T10:20:30;21.70;;;13.73;;
1010;SDS011;494;48.744;10.106;2023-04-06T10:23:08;22.93;;;14.10;;
1010;SDS011;494;48.744;10.106;2023-04-06T10:25:51;24.17;;;15.37;;
1010;SDS011;494;48.744;10.106;2023-04-06T10:28:21;23.17;;;14.67;;
1010;SDS011;494;48.744;10.106;2023-04-06T10:30:58;22.77;;;14.53;;
1010;SDS011;494;48.744;10.106;2023-04-06T10:33:28;24.50;;;14.83;;
1010;SDS011;494;48.744;10.106;2023-04-06T10:35:57;21.03;;;14.40;;
1010;SDS011;494;48.744;10.106;2023-04-06T10:38:35;20.97;;;13.73;;
1010;SDS011;494;48.744;10.106;2023-04-06T10:41:07;19.27;;;13.40;;
1010;SDS011;494;48.744;10.106;2023-04-06T10:43:38;21.67;;;14.10;;
1010;SDS011;494;48.744;10.106;2023-04-06T10:46:10;20.83;;;14.40;;
1010;SDS011;494;48.744;10.106;2023-04-06T10:48:39;19.73;;;12.70;;
1010;SDS011;494;48.744;10.106;2023-04-06T10:51:16;21.50;;;13.40;;
1010;SDS011;494;48.744;10.106;2023-04-06T10:53:50;20.90;;;13.60;;
1010;SDS011;494;48.744;10.106;2023-04-06T10:56:25;19.80;;;13.63;;
1010;SDS011;494;48.744;10.106;2023-04-06T10:58:59;20.80;;;13.10;;
1010;SDS011;494;48.744;10.106;2023-04-06T11:01:30;21.10;;;13.20;;
1010;SDS011;494;48.744;10.106;2023-04-06T11:03:59;21.57;;;13.87;;
1010;SDS011;494;48.744;10.106;2023-04-06T11:06:28;21.57;;;13.80;;
1010;SDS011;494;48.744;10.106;2023-04-06T11:08:58;20.30;;;13.00;;
1010;SDS011;494;48.744;10.106;2023-04-06T11:11:27;24.43;;;12.93;;
1010;SDS011;494;48.744;10.106;2023-04-06T11:13:57;21.57;;;13.90;;
1010;SDS011;494;48.744;10.106;2023-04-06T11:16:30;20.47;;;13.37;;
1010;SDS011;494;48.744;10.106;2023-04-06T11:19:01;19.50;;;12.50;;
1010;SDS011;494;48.744;10.106;2023-04-06T11:21:34;21.17;;;13.43;;
1010;SDS011;494;48.744;10.106;2023-04-06T11:24:09;23.40;;;13.00;;
1010;SDS011;494;48.744;10.106;2023-04-06T11:26:40;21.47;;;13.87;;
1010;SDS011;494;48.744;10.106;2023-04-06T11:29:12;20.40;;;14.43;;
1010;SDS011;494;48.744;10.106;2023-04-06T11:31:45;18.80;;;12.13;;
1010;SDS011;494;48.744;10.106;2023-04-06T11:34:16;18.13;;;12.00;;
1010;SDS011;494;48.744;10.106;2023-04-06T11:36:46;21.70;;;13.00;;
1010;SDS011;494;48.744;10.106;2023-04-06T11:39:20;22.00;;;14.40;;
1010;SDS011;494;48.744;10.106;2023-04-06T11:41:51;22.27;;;13.93;;
1010;SDS011;494;48.744;10.106;2023-04-06T11:44:29;25.87;;;14.33;;
1010;SDS011;494;48.744;10.106;2023-04-06T11:47:02;22.33;;;13.80;;
1010;SDS011;494;48.744;10.106;2023-04-06T11:49:33;20.53;;;13.40;;
1010;SDS011;494;48.744;10.106;2023-04-06T11:52:14;21.23;;;13.90;;
1010;SDS011;494;48.744;10.106;2023-04-06T11:54:44;20.77;;;13.17;;
1010;SDS011;494;48.744;10.106;2023-04-06T11:57:13;22.90;;;13.93;;
1010;SDS011;494;48.744;10.106;2023-04-06T11:59:43;21.20;;;13.67;;
1010;SDS011;494;48.744;10.106;2023-04-06T12:02:14;19.67;;;12.77;;
1010;SDS011;494;48.744;10.106;2023-04-06T12:04:44;19.50;;;13.30;;
1010;SDS011;494;48.744;10.106;2023-04-06T12:07:14;20.83;;;13.00;;
1010;SDS011;494;48.744;10.106;2023-04-06T12:09:42;21.87;;;12.90;;
1010;SDS011;494;48.744;10.106;2023-04-06T12:12:11;21.33;;;12.33;;
1010;SDS011;494;48.744;10.106;2023-04-06T12:14:40;20.03;;;12.70;;
1010;SDS011;494;48.744;10.106;2023-04-06T12:17:09;21.63;;;12.93;;
1010;SDS011;494;48.744;10.106;2023-04-06T12:19:39;21.13;;;13.60;;
1010;SDS011;494;48.744;10.106;2023-04-06T12:22:07;20.10;;;13.50;;
1010;SDS011;494;48.744;10.106;2023-04-06T12:24:36;18.40;;;11.60;;
1010;SDS011;494;48.744;10.106;2023-04-06T12:27:05;19.53;;;12.80;;
1010;SDS011;494;48.744;10.106;2023-04-06T12:29:36;19.57;;;12.60;;
1010;SDS011;494;48.744;10.106;2023-04-06T12:32:05;18.67;;;12.13;;
1010;SDS011;494;48.744;10.106;2023-04-06T12:34:34;22.73;;;13.77;;
1010;SDS011;494;48.744;10.106;2023-04-06T12:37:04;20.40;;;13.67;;
1010;SDS011;494;48.744;10.106;2023-04-06T12:39:33;20.37;;;13.20;;
1010;SDS011;494;48.744;10.106;2023-04-06T12:42:02;22.20;;;13.60;;
1010;SDS011;494;48.744;10.106;2023-04-06T12:44:31;20.97;;;13.33;;
1010;SDS011;494;48.744;10.106;2023-04-06T12:46:59;18.57;;;13.00;;
1010;SDS011;494;48.744;10.106;2023-04-06T12:49:28;20.53;;;13.80;;
1010;SDS011;494;48.744;10.106;2023-04-06T12:51:58;20.30;;;14.57;;
1010;SDS011;494;48.744;10.106;2023-04-06T12:54:28;20.50;;;13.97;;
1010;SDS011;494;48.744;10.106;2023-04-06T12:56:57;19.67;;;13.10;;
1010;SDS011;494;48.744;10.106;2023-04-06T12:59:27;17.97;;;11.60;;
1010;SDS011;494;48.744;10.106;2023-04-06T13:02:01;19.00;;;13.67;;
1010;SDS011;494;48.744;10.106;2023-04-06T13:04:31;20.73;;;13.70;;
1010;SDS011;494;48.744;10.106;2023-04-06T13:07:00;19.90;;;13.47;;
1010;SDS011;494;48.744;10.106;2023-04-06T13:09:30;22.60;;;13.90;;
1010;SDS011;494;48.744;10.106;2023-04-06T13:11:58;20.20;;;13.83;;
1010;SDS011;494;48.744;10.106;2023-04-06T13:14:27;20.40;;;13.50;;
1010;SDS011;494;48.744;10.106;2023-04-06T13:16:56;18.63;;;12.90;;
1010;SDS011;494;48.744;10.106;2023-04-06T13:19:25;19.57;;;12.87;;
1010;SDS011;494;48.744;10.106;2023-04-06T13:21:53;20.77;;;13.33;;
1010;SDS011;494;48.744;10.106;2023-04-06T13:24:22;21.07;;;13.30;;
1010;SDS011;494;48.744;10.106;2023-04-06T13:26:52;21.37;;;14.03;;
1010;SDS011;494;48.744;10.106;2023-04-06T13:29:20;20.97;;;14.20;;
1010;SDS011;494;48.744;10.106;2023-04-06T13:31:49;20.67;;;13.27;;
1010;SDS011;494;48.744;10.106;2023-04-06T13:34:17;19.20;;;13.13;;
1010;SDS011;494;48.744;10.106;2023-04-06T13:36:46;19.87;;;13.63;;
1010;SDS011;494;48.744;10.106;2023-04-06T13:39:15;21.83;;;13.50;;
1010;SDS011;494;48.744;10.106;2023-04-06T13:41:43;20.53;;;13.50;;
1010;SDS011;494;48.744;10.106;2023-04-06T13:44:14;19.47;;;13.67;;
1010;SDS011;494;48.744;10.106;2023-04-06T13:46:42;23.17;;;14.53;;
1010;SDS011;494;48.744;10.106;2023-04-06T13:49:11;21.07;;;14.57;;
1010;SDS011;494;48.744;10.106;2023-04-06T13:51:39;22.33;;;14.53;;
1010;SDS011;494;48.744;10.106;2023-04-06T13:54:08;19.63;;;12.73;;
1010;SDS011;494;48.744;10.106;2023-04-06T13:56:37;20.10;;;13.77;;
1010;SDS011;494;48.744;10.106;2023-04-06T13:59:05;19.57;;;13.70;;
1010;SDS011;494;48.744;10.106;2023-04-06T14:01:35;21.90;;;13.17;;
1010;SDS011;494;48.744;10.106;2023-04-06T14:04:05;20.50;;;14.03;;
1010;SDS011;494;48.744;10.106;2023-04-06T14:06:34;19.90;;;13.60;;
1010;SDS011;494;48.744;10.106;2023-04-06T14:09:02;21.57;;;14.60;;
1010;SDS011;494;48.744;10.106;2023-04-06T14:11:31;25.53;;;15.20;;
1010;SDS011;494;48.744;10.106;2023-04-06T14:14:00;20.80;;;14.40;;
1010;SDS011;494;48.744;10.106;2023-04-06T14:16:29;21.03;;;13.63;;
1010;SDS011;494;48.744;10.106;2023-04-06T14:18:59;20.73;;;13.00;;
1010;SDS011;494;48.744;10.106;2023-04-06T14:21:29;19.57;;;13.27;;
1010;SDS011;494;48.744;10.106;2023-04-06T14:23:58;18.97;;;12.93;;
1010;SDS011;494;48.744;10.106;2023-04-06T14:26:28;23.60;;;13.77;;
1010;SDS011;494;48.744;10.106;2023-04-06T14:28:57;19.23;;;13.13;;
1010;SDS011;494;48.744;10.106;2023-04-06T14:31:28;19.80;;;13.50;;
1010;SDS011;494;48.744;10.106;2023-04-06T14:33:56;22.57;;;14.60;;
1010;SDS011;494;48.744;10.106;2023-04-06T14:36:27;21.07;;;14.00;;
1010;SDS011;494;48.744;10.106;2023-04-06T14:38:58;20.17;;;13.90;;
1010;SDS011;494;48.744;10.106;2023-04-06T14:41:27;23.83;;;14.83;;
1010;SDS011;494;48.744;10.106;2023-04-06T14:43:55;20.27;;;14.07;;
1010;SDS011;494;48.744;10.106;2023-04-06T14:46:24;21.87;;;14.13;;
1010;SDS011;494;48.744;10.106;2023-04-06T14:48:54;23.07;;;15.20;;
1010;SDS011;494;48.744;10.106;2023-04-06T14:51:24;22.03;;;13.63;;
1010;SDS011;494;48.744;10.106;2023-04-06T14:53:55;20.27;;;13.97;;
1010;SDS011;494;48.744;10.106;2023-04-06T14:56:24;25.03;;;15.20;;
1010;SDS011;494;48.744;10.106;2023-04-06T14:58:52;20.40;;;13.77;;
1010;SDS011;494;48.744;10.106;2023-04-06T15:01:23;18.40;;;11.90;;
1010;SDS011;494;48.744;10.106;2023-04-06T15:03:52;21.30;;;13.77;;